sensor_id;sensor_type;location;lat;lon;timestamp;pressure;altitude;pressure_sealevel;temperature;humidity
47750;BME280;49810;48.160;10.812;2022-12-11T00:02:01;94458.72;;;-2.01;85.82
47750;BME280;49810;48.160;10.812;2022-12-11T00:04:30;94457.50;;;-2.05;86.27
47750;BME280;49810;48.160;10.812;2022-12-11T00:06:58;94456.91;;;-2.07;85.77
47750;BME280;49810;48.160;10.812;2022-12-11T00:09:26;94463.00;;;-2.15;85.88
47750;BME280;49810;48.160;10.812;2022-12-11T00:11:54;94466.53;;;-2.22;86.57
47750;BME280;49810;48.160;10.812;2022-12-11T00:14:23;94459.91;;;-2.31;86.95
47750;BME280;49810;48.160;10.812;2022-12-11T00:16:51;94468.56;;;-2.18;86.46
47750;BME280;49810;48.160;10.812;2022-12-11T00:19:19;94462.91;;;-2.28;86.73
47750;BME280;49810;48.160;10.812;2022-12-11T00:21:47;94461.44;;;-2.09;85.76
47750;BME280;49810;48.160;10.812;2022-12-11T00:24:15;94454.38;;;-1.67;85.14
47750;BME280;49810;48.160;10.812;2022-12-11T00:26:43;94455.34;;;-1.74;84.79
47750;BME280;49810;48.160;10.812;2022-12-11T00:29:11;94452.50;;;-1.79;84.78
47750;BME280;49810;48.160;10.812;2022-12-11T00:31:42;94454.56;;;-1.68;84.49
47750;BME280;49810;48.160;10.812;2022-12-11T00:34:10;94450.41;;;-1.97;85.02
47750;BME280;49810;48.160;10.812;2022-12-11T00:36:38;94447.97;;;-1.71;84.76
47750;BME280;49810;48.160;10.812;2022-12-11T00:39:06;94446.44;;;-1.65;84.28
47750;BME280;49810;48.160;10.812;2022-12-11T00:41:34;94450.47;;;-1.90;85.25
47750;BME280;49810;48.160;10.812;2022-12-11T00:44:02;94444.44;;;-2.18;85.48
47750;BME280;49810;48.160;10.812;2022-12-11T00:46:30;94443.78;;;-1.72;84.34
47750;BME280;49810;48.160;10.812;2022-12-11T00:48:59;94447.28;;;-1.86;84.70
47750;BME280;49810;48.160;10.812;2022-12-11T00:51:27;94447.06;;;-1.91;84.85
47750;BME280;49810;48.160;10.812;2022-12-11T00:53:55;94450.78;;;-2.00;85.04
47750;BME280;49810;48.160;10.812;2022-12-11T00:56:23;94447.66;;;-1.61;83.95
47750;BME280;49810;48.160;10.812;2022-12-11T00:58:51;94453.63;;;-1.61;83.78
47750;BME280;49810;48.160;10.812;2022-12-11T01:01:20;94452.22;;;-1.63;83.55
47750;BME280;49810;48.160;10.812;2022-12-11T01:03:48;94456.00;;;-1.59;83.83
47750;BME280;49810;48.160;10.812;2022-12-11T01:06:18;94451.75;;;-1.73;84.47
47750;BME280;49810;48.160;10.812;2022-12-11T01:08:47;94463.59;;;-1.58;83.64
47750;BME280;49810;48.160;10.812;2022-12-11T01:11:35;94463.50;;;-1.43;83.13
47750;BME280;49810;48.160;10.812;2022-12-11T01:14:02;94454.06;;;-1.57;83.56
47750;BME280;49810;48.160;10.812;2022-12-11T01:16:30;94461.97;;;-1.65;83.48
47750;BME280;49810;48.160;10.812;2022-12-11T01:18:59;94456.66;;;-1.57;83.45
47750;BME280;49810;48.160;10.812;2022-12-11T01:21:28;94460.28;;;-1.52;83.36
47750;BME280;49810;48.160;10.812;2022-12-11T01:23:56;94471.56;;;-1.59;83.94
47750;BME280;49810;48.160;10.812;2022-12-11T01:26:24;94468.16;;;-1.66;84.53
47750;BME280;49810;48.160;10.812;2022-12-11T01:28:52;94468.78;;;-1.58;83.87
47750;BME280;49810;48.160;10.812;2022-12-11T01:31:20;94473.88;;;-1.71;83.85
47750;BME280;49810;48.160;10.812;2022-12-11T01:33:48;94477.28;;;-1.70;84.82
47750;BME280;49810;48.160;10.812;2022-12-11T01:36:17;94483.47;;;-1.71;84.25
47750;BME280;49810;48.160;10.812;2022-12-11T01:38:47;94478.84;;;-1.76;84.31
47750;BME280;49810;48.160;10.812;2022-12-11T01:41:15;94481.06;;;-1.73;84.44
47750;BME280;49810;48.160;10.812;2022-12-11T01:43:59;94477.25;;;-1.77;84.96
47750;BME280;49810;48.160;10.812;2022-12-11T01:46:28;94483.00;;;-1.75;84.85
47750;BME280;49810;48.160;10.812;2022-12-11T01:48:56;94489.78;;;-1.80;85.12
47750;BME280;49810;48.160;10.812;2022-12-11T01:51:25;94486.78;;;-1.77;85.27
47750;BME280;49810;48.160;10.812;2022-12-11T01:53:57;94479.41;;;-1.80;85.12
47750;BME280;49810;48.160;10.812;2022-12-11T01:56:25;94479.28;;;-1.72;85.25
47750;BME280;49810;48.160;10.812;2022-12-11T01:58:55;94480.09;;;-1.65;85.47
47750;BME280;49810;48.160;10.812;2022-12-11T02:01:26;94478.31;;;-1.65;85.10
47750;BME280;49810;48.160;10.812;2022-12-11T02:03:57;94482.06;;;-1.74;85.38
47750;BME280;49810;48.160;10.812;2022-12-11T02:06:28;94468.06;;;-1.79;85.48
47750;BME280;49810;48.160;10.812;2022-12-11T02:08:58;94473.47;;;-1.74;85.55
47750;BME280;49810;48.160;10.812;2022-12-11T02:11:27;94479.81;;;-1.77;85.60
47750;BME280;49810;48.160;10.812;2022-12-11T02:14:00;94477.25;;;-1.77;85.71
47750;BME280;49810;48.160;10.812;2022-12-11T02:16:32;94476.19;;;-1.82;85.60
47750;BME280;49810;48.160;10.812;2022-12-11T02:19:06;94474.06;;;-1.79;85.96
47750;BME280;49810;48.160;10.812;2022-12-11T02:21:38;94471.72;;;-1.95;85.99
47750;BME280;49810;48.160;10.812;2022-12-11T02:24:17;94478.06;;;-1.76;86.08
47750;BME280;49810;48.160;10.812;2022-12-11T02:27:04;94476.28;;;-1.69;85.40
47750;BME280;49810;48.160;10.812;2022-12-11T02:29:41;94475.69;;;-1.71;85.61
47750;BME280;49810;48.160;10.812;2022-12-11T02:32:12;94482.50;;;-1.91;85.52
47750;BME280;49810;48.160;10.812;2022-12-11T02:34:43;94484.72;;;-1.88;85.61
47750;BME280;49810;48.160;10.812;2022-12-11T02:37:14;94482.41;;;-1.77;85.03
47750;BME280;49810;48.160;10.812;2022-12-11T02:39:43;94473.81;;;-1.84;85.17
47750;BME280;49810;48.160;10.812;2022-12-11T02:42:12;94481.13;;;-1.87;85.00
47750;BME280;49810;48.160;10.812;2022-12-11T02:44:43;94474.09;;;-2.00;85.00
47750;BME280;49810;48.160;10.812;2022-12-11T02:47:12;94483.78;;;-2.08;85.24
47750;BME280;49810;48.160;10.812;2022-12-11T02:49:42;94485.72;;;-2.38;85.75
47750;BME280;49810;48.160;10.812;2022-12-11T02:52:11;94477.19;;;-2.32;86.14
47750;BME280;49810;48.160;10.812;2022-12-11T02:54:41;94479.78;;;-2.32;85.76
47750;BME280;49810;48.160;10.812;2022-12-11T02:57:11;94479.91;;;-2.40;85.91
47750;BME280;49810;48.160;10.812;2022-12-11T02:59:43;94478.59;;;-2.50;86.07
47750;BME280;49810;48.160;10.812;2022-12-11T03:02:12;94475.41;;;-2.52;86.10
47750;BME280;49810;48.160;10.812;2022-12-11T03:04:40;94479.72;;;-2.59;86.23
47750;BME280;49810;48.160;10.812;2022-12-11T03:07:09;94476.63;;;-2.69;86.48
47750;BME280;49810;48.160;10.812;2022-12-11T03:09:42;94483.22;;;-2.88;86.79
47750;BME280;49810;48.160;10.812;2022-12-11T03:12:11;94481.22;;;-2.86;86.55
47750;BME280;49810;48.160;10.812;2022-12-11T03:14:40;94476.75;;;-3.27;87.41
47750;BME280;49810;48.160;10.812;2022-12-11T03:17:12;94485.00;;;-3.03;87.21
47750;BME280;49810;48.160;10.812;2022-12-11T03:19:43;94492.31;;;-3.06;87.10
47750;BME280;49810;48.160;10.812;2022-12-11T03:22:15;94491.63;;;-3.15;87.02
47750;BME280;49810;48.160;10.812;2022-12-11T03:24:46;94488.72;;;-3.26;86.51
47750;BME280;49810;48.160;10.812;2022-12-11T03:27:18;94478.81;;;-3.37;86.38
47750;BME280;49810;48.160;10.812;2022-12-11T03:29:50;94476.31;;;-3.45;86.23
47750;BME280;49810;48.160;10.812;2022-12-11T03:32:23;94480.19;;;-3.56;86.61
47750;BME280;49810;48.160;10.812;2022-12-11T03:34:54;94491.19;;;-3.91;87.26
47750;BME280;49810;48.160;10.812;2022-12-11T03:37:36;94490.31;;;-3.69;87.42
47750;BME280;49810;48.160;10.812;2022-12-11T03:40:07;94494.31;;;-3.66;87.85
47750;BME280;49810;48.160;10.812;2022-12-11T03:42:37;94497.78;;;-3.59;87.96
47750;BME280;49810;48.160;10.812;2022-12-11T03:45:05;94503.59;;;-3.57;88.22
47750;BME280;49810;48.160;10.812;2022-12-11T03:47:36;94505.88;;;-3.48;88.20
47750;BME280;49810;48.160;10.812;2022-12-11T03:50:05;94507.78;;;-3.42;88.06
47750;BME280;49810;48.160;10.812;2022-12-11T03:52:34;94512.56;;;-3.39;87.87
47750;BME280;49810;48.160;10.812;2022-12-11T03:55:09;94508.81;;;-3.22;87.55
47750;BME280;49810;48.160;10.812;2022-12-11T03:57:39;94507.94;;;-3.14;87.11
47750;BME280;49810;48.160;10.812;2022-12-11T04:00:08;94511.75;;;-3.10;86.27
47750;BME280;49810;48.160;10.812;2022-12-11T04:02:40;94508.47;;;-3.19;86.52
47750;BME280;49810;48.160;10.812;2022-12-11T04:05:09;94509.91;;;-3.16;86.30
47750;BME280;49810;48.160;10.812;2022-12-11T04:07:37;94505.00;;;-3.11;86.41
47750;BME280;49810;48.160;10.812;2022-12-11T04:10:05;94498.50;;;-3.22;86.56
47750;BME280;49810;48.160;10.812;2022-12-11T04:12:33;94501.16;;;-3.15;86.74
47750;BME280;49810;48.160;10.812;2022-12-11T04:15:01;94499.81;;;-3.26;87.07
47750;BME280;49810;48.160;10.812;2022-12-11T04:17:31;94502.56;;;-2.98;85.92
47750;BME280;49810;48.160;10.812;2022-12-11T04:20:19;94496.59;;;-3.13;85.69
47750;BME280;49810;48.160;10.812;2022-12-11T04:23:04;94499.91;;;-3.05;85.68
47750;BME280;49810;48.160;10.812;2022-12-11T04:25:50;94500.00;;;-2.98;85.34
47750;BME280;49810;48.160;10.812;2022-12-11T04:28:17;94502.81;;;-2.93;85.39
47750;BME280;49810;48.160;10.812;2022-12-11T04:30:47;94504.16;;;-2.97;85.24
47750;BME280;49810;48.160;10.812;2022-12-11T04:33:15;94507.34;;;-2.95;85.67
47750;BME280;49810;48.160;10.812;2022-12-11T04:35:44;94500.25;;;-2.93;85.25
47750;BME280;49810;48.160;10.812;2022-12-11T04:38:12;94504.44;;;-3.07;86.03
47750;BME280;49810;48.160;10.812;2022-12-11T04:40:40;94500.50;;;-2.88;85.58
47750;BME280;49810;48.160;10.812;2022-12-11T04:43:08;94507.00;;;-2.92;85.47
47750;BME280;49810;48.160;10.812;2022-12-11T04:45:36;94510.06;;;-3.03;85.82
47750;BME280;49810;48.160;10.812;2022-12-11T04:48:04;94504.69;;;-3.02;85.79
47750;BME280;49810;48.160;10.812;2022-12-11T04:50:32;94502.41;;;-2.97;85.57
47750;BME280;49810;48.160;10.812;2022-12-11T04:53:01;94500.06;;;-2.92;85.66
47750;BME280;49810;48.160;10.812;2022-12-11T04:55:29;94501.66;;;-2.91;85.87
47750;BME280;49810;48.160;10.812;2022-12-11T04:57:57;94501.03;;;-2.93;85.75
47750;BME280;49810;48.160;10.812;2022-12-11T05:00:25;94492.75;;;-2.88;85.80
47750;BME280;49810;48.160;10.812;2022-12-11T05:02:53;94486.59;;;-3.02;85.89
47750;BME280;49810;48.160;10.812;2022-12-11T05:05:21;94489.91;;;-2.72;85.64
47750;BME280;49810;48.160;10.812;2022-12-11T05:07:48;94489.97;;;-2.66;85.01
47750;BME280;49810;48.160;10.812;2022-12-11T05:10:18;94497.09;;;-2.89;85.42
47750;BME280;49810;48.160;10.812;2022-12-11T05:12:46;94499.25;;;-2.92;85.99
47750;BME280;49810;48.160;10.812;2022-12-11T05:15:14;94494.56;;;-3.03;86.57
47750;BME280;49810;48.160;10.812;2022-12-11T05:17:42;94496.06;;;-3.09;86.84
47750;BME280;49810;48.160;10.812;2022-12-11T05:20:10;94499.72;;;-2.68;85.77
47750;BME280;49810;48.160;10.812;2022-12-11T05:22:38;94495.44;;;-2.61;85.23
47750;BME280;49810;48.160;10.812;2022-12-11T05:25:06;94493.66;;;-2.75;85.61
47750;BME280;49810;48.160;10.812;2022-12-11T05:27:36;94496.16;;;-2.67;85.05
47750;BME280;49810;48.160;10.812;2022-12-11T05:30:04;94492.97;;;-2.69;84.93
47750;BME280;49810;48.160;10.812;2022-12-11T05:32:33;94488.47;;;-2.96;85.60
47750;BME280;49810;48.160;10.812;2022-12-11T05:35:01;94492.97;;;-2.69;85.48
47750;BME280;49810;48.160;10.812;2022-12-11T05:37:31;94489.50;;;-2.76;85.29
47750;BME280;49810;48.160;10.812;2022-12-11T05:39:59;94478.50;;;-2.42;83.84
47750;BME280;49810;48.160;10.812;2022-12-11T05:42:27;94476.63;;;-2.69;84.13
47750;BME280;49810;48.160;10.812;2022-12-11T05:44:56;94482.03;;;-2.64;84.28
47750;BME280;49810;48.160;10.812;2022-12-11T05:47:24;94478.69;;;-2.65;84.09
47750;BME280;49810;48.160;10.812;2022-12-11T05:49:52;94479.91;;;-2.61;84.19
47750;BME280;49810;48.160;10.812;2022-12-11T05:52:20;94481.81;;;-2.48;83.69
47750;BME280;49810;48.160;10.812;2022-12-11T05:54:48;94477.56;;;-2.56;83.34
47750;BME280;49810;48.160;10.812;2022-12-11T05:57:16;94469.50;;;-2.46;83.13
47750;BME280;49810;48.160;10.812;2022-12-11T05:59:44;94477.00;;;-2.51;82.74
47750;BME280;49810;48.160;10.812;2022-12-11T06:02:13;94470.84;;;-2.50;82.00
47750;BME280;49810;48.160;10.812;2022-12-11T06:04:41;94467.22;;;-2.56;82.05
47750;BME280;49810;48.160;10.812;2022-12-11T06:07:09;94469.06;;;-2.50;81.81
47750;BME280;49810;48.160;10.812;2022-12-11T06:09:37;94469.88;;;-2.49;82.04
47750;BME280;49810;48.160;10.812;2022-12-11T06:12:05;94464.50;;;-2.69;82.45
47750;BME280;49810;48.160;10.812;2022-12-11T06:14:33;94462.94;;;-2.63;82.53
47750;BME280;49810;48.160;10.812;2022-12-11T06:17:01;94456.63;;;-2.61;81.52
47750;BME280;49810;48.160;10.812;2022-12-11T06:19:33;94461.66;;;-2.53;81.30
47750;BME280;49810;48.160;10.812;2022-12-11T06:22:02;94455.25;;;-2.57;80.67
47750;BME280;49810;48.160;10.812;2022-12-11T06:24:30;94463.59;;;-2.61;80.92
47750;BME280;49810;48.160;10.812;2022-12-11T06:26:59;94453.78;;;-2.87;81.24
47750;BME280;49810;48.160;10.812;2022-12-11T06:29:26;94455.63;;;-3.16;82.32
47750;BME280;49810;48.160;10.812;2022-12-11T06:31:54;94455.31;;;-3.07;82.55
47750;BME280;49810;48.160;10.812;2022-12-11T06:34:22;94455.53;;;-3.08;82.08
47750;BME280;49810;48.160;10.812;2022-12-11T06:36:52;94464.97;;;-3.15;82.31
47750;BME280;49810;48.160;10.812;2022-12-11T06:39:20;94463.03;;;-3.28;82.59
47750;BME280;49810;48.160;10.812;2022-12-11T06:41:48;94460.72;;;-3.37;82.87
47750;BME280;49810;48.160;10.812;2022-12-11T06:44:16;94465.19;;;-3.46;83.14
47750;BME280;49810;48.160;10.812;2022-12-11T06:46:44;94455.94;;;-3.55;83.26
47750;BME280;49810;48.160;10.812;2022-12-11T06:49:12;94454.69;;;-3.59;83.46
47750;BME280;49810;48.160;10.812;2022-12-11T06:51:40;94464.66;;;-3.70;83.88
47750;BME280;49810;48.160;10.812;2022-12-11T06:54:09;94457.91;;;-3.71;83.79
47750;BME280;49810;48.160;10.812;2022-12-11T06:56:37;94454.25;;;-3.77;83.77
47750;BME280;49810;48.160;10.812;2022-12-11T06:59:06;94452.56;;;-3.84;83.93
47750;BME280;49810;48.160;10.812;2022-12-11T07:01:37;94455.03;;;-3.91;84.09
47750;BME280;49810;48.160;10.812;2022-12-11T07:04:07;94448.53;;;-4.01;84.32
47750;BME280;49810;48.160;10.812;2022-12-11T07:06:35;94462.22;;;-4.15;84.39
47750;BME280;49810;48.160;10.812;2022-12-11T07:09:04;94453.28;;;-4.64;84.77
47750;BME280;49810;48.160;10.812;2022-12-11T07:11:33;94466.22;;;-4.72;85.25
47750;BME280;49810;48.160;10.812;2022-12-11T07:14:02;94467.59;;;-4.84;85.20
47750;BME280;49810;48.160;10.812;2022-12-11T07:16:30;94464.13;;;-4.69;84.91
47750;BME280;49810;48.160;10.812;2022-12-11T07:18:58;94473.41;;;-4.60;84.87
47750;BME280;49810;48.160;10.812;2022-12-11T07:21:26;94471.31;;;-4.87;85.12
47750;BME280;49810;48.160;10.812;2022-12-11T07:23:54;94473.50;;;-4.76;85.25
47750;BME280;49810;48.160;10.812;2022-12-11T07:26:21;94476.94;;;-4.83;85.28
47750;BME280;49810;48.160;10.812;2022-12-11T07:28:51;94473.41;;;-4.90;85.32
47750;BME280;49810;48.160;10.812;2022-12-11T07:31:20;94478.88;;;-4.63;84.88
47750;BME280;49810;48.160;10.812;2022-12-11T07:33:51;94478.56;;;-4.45;84.29
47750;BME280;49810;48.160;10.812;2022-12-11T07:36:20;94482.28;;;-4.62;83.71
47750;BME280;49810;48.160;10.812;2022-12-11T07:38:48;94480.19;;;-4.67;83.72
47750;BME280;49810;48.160;10.812;2022-12-11T07:41:16;94480.44;;;-4.54;83.25
47750;BME280;49810;48.160;10.812;2022-12-11T07:43:52;94480.88;;;-4.50;82.79
47750;BME280;49810;48.160;10.812;2022-12-11T07:46:21;94477.31;;;-4.49;82.58
47750;BME280;49810;48.160;10.812;2022-12-11T07:48:49;94478.94;;;-4.48;82.25
47750;BME280;49810;48.160;10.812;2022-12-11T07:51:18;94480.22;;;-4.44;82.44
47750;BME280;49810;48.160;10.812;2022-12-11T07:53:48;94479.06;;;-4.42;82.61
47750;BME280;49810;48.160;10.812;2022-12-11T07:56:16;94487.41;;;-4.40;82.67
47750;BME280;49810;48.160;10.812;2022-12-11T07:58:45;94476.56;;;-4.35;82.91
47750;BME280;49810;48.160;10.812;2022-12-11T08:01:14;94484.72;;;-4.24;82.38
47750;BME280;49810;48.160;10.812;2022-12-11T08:03:43;94480.34;;;-4.23;82.29
47750;BME280;49810;48.160;10.812;2022-12-11T08:06:11;94486.75;;;-4.19;82.33
47750;BME280;49810;48.160;10.812;2022-12-11T08:08:40;94481.81;;;-4.43;82.85
47750;BME280;49810;48.160;10.812;2022-12-11T08:11:08;94486.53;;;-4.32;82.30
47750;BME280;49810;48.160;10.812;2022-12-11T08:13:37;94495.19;;;-4.25;82.92
47750;BME280;49810;48.160;10.812;2022-12-11T08:16:05;94499.38;;;-4.47;83.27
47750;BME280;49810;48.160;10.812;2022-12-11T08:18:34;94498.00;;;-4.35;82.74
47750;BME280;49810;48.160;10.812;2022-12-11T08:21:03;94501.50;;;-4.73;83.06
47750;BME280;49810;48.160;10.812;2022-12-11T08:23:32;94508.16;;;-4.78;83.34
47750;BME280;49810;48.160;10.812;2022-12-11T08:26:00;94500.97;;;-4.91;83.35
47750;BME280;49810;48.160;10.812;2022-12-11T08:28:29;94498.97;;;-4.81;83.90
47750;BME280;49810;48.160;10.812;2022-12-11T08:30:57;94497.66;;;-4.54;83.57
47750;BME280;49810;48.160;10.812;2022-12-11T08:33:26;94503.19;;;-4.57;83.42
47750;BME280;49810;48.160;10.812;2022-12-11T08:35:55;94507.50;;;-4.13;82.74
47750;BME280;49810;48.160;10.812;2022-12-11T08:38:23;94506.78;;;-4.07;82.39
47750;BME280;49810;48.160;10.812;2022-12-11T08:40:51;94508.53;;;-3.85;81.79
47750;BME280;49810;48.160;10.812;2022-12-11T08:43:19;94498.41;;;-3.43;80.79
47750;BME280;49810;48.160;10.812;2022-12-11T08:45:47;94499.69;;;-3.53;80.46
47750;BME280;49810;48.160;10.812;2022-12-11T08:48:15;94502.66;;;-3.21;79.46
47750;BME280;49810;48.160;10.812;2022-12-11T08:50:43;94502.38;;;-3.84;80.87
47750;BME280;49810;48.160;10.812;2022-12-11T08:53:12;94504.28;;;-3.63;80.70
47750;BME280;49810;48.160;10.812;2022-12-11T08:55:40;94502.34;;;-3.61;80.77
47750;BME280;49810;48.160;10.812;2022-12-11T08:58:08;94508.81;;;-3.36;79.88
47750;BME280;49810;48.160;10.812;2022-12-11T09:00:36;94507.56;;;-3.11;78.90
47750;BME280;49810;48.160;10.812;2022-12-11T09:03:05;94510.28;;;-2.84;78.20
47750;BME280;49810;48.160;10.812;2022-12-11T09:05:38;94502.66;;;-3.21;78.33
47750;BME280;49810;48.160;10.812;2022-12-11T09:08:06;94502.09;;;-2.87;77.88
47750;BME280;49810;48.160;10.812;2022-12-11T09:10:35;94494.22;;;-3.29;79.08
47750;BME280;49810;48.160;10.812;2022-12-11T09:13:03;94494.97;;;-2.85;78.49
47750;BME280;49810;48.160;10.812;2022-12-11T09:15:31;94493.38;;;-2.65;77.12
47750;BME280;49810;48.160;10.812;2022-12-11T09:17:59;94493.03;;;-2.62;76.27
47750;BME280;49810;48.160;10.812;2022-12-11T09:20:27;94500.78;;;-2.41;75.53
47750;BME280;49810;48.160;10.812;2022-12-11T09:22:55;94499.44;;;-2.58;76.30
47750;BME280;49810;48.160;10.812;2022-12-11T09:25:23;94507.59;;;-2.40;75.78
47750;BME280;49810;48.160;10.812;2022-12-11T09:27:52;94515.78;;;-2.37;75.17
47750;BME280;49810;48.160;10.812;2022-12-11T09:30:20;94521.88;;;-2.23;74.98
47750;BME280;49810;48.160;10.812;2022-12-11T09:32:48;94508.59;;;-1.93;74.29
47750;BME280;49810;48.160;10.812;2022-12-11T09:35:16;94503.16;;;-1.98;74.60
47750;BME280;49810;48.160;10.812;2022-12-11T09:37:44;94504.31;;;-1.79;73.99
47750;BME280;49810;48.160;10.812;2022-12-11T09:40:13;94498.88;;;-1.63;73.57
47750;BME280;49810;48.160;10.812;2022-12-11T09:42:45;94492.00;;;-1.71;74.00
47750;BME280;49810;48.160;10.812;2022-12-11T09:45:17;94488.56;;;-1.50;72.40
47750;BME280;49810;48.160;10.812;2022-12-11T09:47:47;94488.13;;;-1.88;72.59
47750;BME280;49810;48.160;10.812;2022-12-11T09:50:18;94497.16;;;-2.05;74.43
47750;BME280;49810;48.160;10.812;2022-12-11T09:52:52;94499.91;;;-2.27;73.75
47750;BME280;49810;48.160;10.812;2022-12-11T09:55:24;94495.16;;;-2.03;74.47
47750;BME280;49810;48.160;10.812;2022-12-11T09:57:54;94495.75;;;-2.28;74.57
47750;BME280;49810;48.160;10.812;2022-12-11T10:00:28;94486.84;;;-2.19;74.12
47750;BME280;49810;48.160;10.812;2022-12-11T10:03:12;94486.59;;;-2.03;73.94
47750;BME280;49810;48.160;10.812;2022-12-11T10:05:46;94475.69;;;-1.99;74.34
47750;BME280;49810;48.160;10.812;2022-12-11T10:08:19;94471.09;;;-1.69;73.56
47750;BME280;49810;48.160;10.812;2022-12-11T10:10:50;94463.69;;;-1.79;73.47
47750;BME280;49810;48.160;10.812;2022-12-11T10:13:22;94462.72;;;-1.37;72.83
47750;BME280;49810;48.160;10.812;2022-12-11T10:15:57;94458.47;;;-1.51;71.89
47750;BME280;49810;48.160;10.812;2022-12-11T10:18:27;94463.63;;;-1.17;71.68
47750;BME280;49810;48.160;10.812;2022-12-11T10:20:56;94456.13;;;-0.99;71.28
47750;BME280;49810;48.160;10.812;2022-12-11T10:23:28;94452.19;;;-0.76;69.62
47750;BME280;49810;48.160;10.812;2022-12-11T10:26:03;94457.88;;;-1.06;70.28
47750;BME280;49810;48.160;10.812;2022-12-11T10:28:33;94455.47;;;-1.14;70.36
47750;BME280;49810;48.160;10.812;2022-12-11T10:31:04;94457.13;;;-0.94;69.97
47750;BME280;49810;48.160;10.812;2022-12-11T10:33:39;94448.22;;;-0.72;68.64
47750;BME280;49810;48.160;10.812;2022-12-11T10:36:11;94450.69;;;-0.44;69.33
47750;BME280;49810;48.160;10.812;2022-12-11T10:38:42;94444.94;;;-0.01;68.66
47750;BME280;49810;48.160;10.812;2022-12-11T10:41:11;94436.53;;;-0.16;67.04
47750;BME280;49810;48.160;10.812;2022-12-11T10:43:41;94437.50;;;-0.30;67.33
47750;BME280;49810;48.160;10.812;2022-12-11T10:46:15;94432.34;;;-0.10;67.41
47750;BME280;49810;48.160;10.812;2022-12-11T10:48:44;94426.13;;;0.04;67.36
47750;BME280;49810;48.160;10.812;2022-12-11T10:51:12;94428.72;;;0.04;67.04
47750;BME280;49810;48.160;10.812;2022-12-11T10:53:41;94418.13;;;-0.08;67.70
47750;BME280;49810;48.160;10.812;2022-12-11T10:56:10;94414.38;;;-0.31;67.52
47750;BME280;49810;48.160;10.812;2022-12-11T10:58:39;94418.34;;;-0.29;67.71
47750;BME280;49810;48.160;10.812;2022-12-11T11:01:18;94417.34;;;0.05;67.57
47750;BME280;49810;48.160;10.812;2022-12-11T11:03:56;94408.38;;;0.08;66.19
47750;BME280;49810;48.160;10.812;2022-12-11T11:06:25;94403.34;;;0.13;66.64
47750;BME280;49810;48.160;10.812;2022-12-11T11:08:54;94408.53;;;0.32;66.21
47750;BME280;49810;48.160;10.812;2022-12-11T11:11:24;94401.16;;;0.09;66.58
47750;BME280;49810;48.160;10.812;2022-12-11T11:14:03;94399.38;;;-0.23;66.60
47750;BME280;49810;48.160;10.812;2022-12-11T11:16:35;94389.19;;;-0.57;66.29
47750;BME280;49810;48.160;10.812;2022-12-11T11:19:04;94391.13;;;-0.72;67.75
47750;BME280;49810;48.160;10.812;2022-12-11T11:21:33;94381.53;;;-0.91;68.22
47750;BME280;49810;48.160;10.812;2022-12-11T11:24:02;94382.03;;;-1.28;68.96
47750;BME280;49810;48.160;10.812;2022-12-11T11:26:30;94388.56;;;-1.38;69.61
47750;BME280;49810;48.160;10.812;2022-12-11T11:29:21;94377.25;;;-1.18;70.01
47750;BME280;49810;48.160;10.812;2022-12-11T11:31:53;94377.91;;;-1.03;70.10
47750;BME280;49810;48.160;10.812;2022-12-11T11:34:21;94375.69;;;-1.12;69.99
47750;BME280;49810;48.160;10.812;2022-12-11T11:36:55;94372.94;;;-0.85;70.10
47750;BME280;49810;48.160;10.812;2022-12-11T11:39:25;94368.38;;;-0.83;69.07
47750;BME280;49810;48.160;10.812;2022-12-11T11:41:57;94373.53;;;-0.96;68.37
47750;BME280;49810;48.160;10.812;2022-12-11T11:44:27;94368.16;;;-0.94;68.04
47750;BME280;49810;48.160;10.812;2022-12-11T11:46:59;94366.81;;;-0.77;67.72
47750;BME280;49810;48.160;10.812;2022-12-11T11:49:43;94366.22;;;-0.34;66.74
47750;BME280;49810;48.160;10.812;2022-12-11T11:52:14;94363.63;;;0.63;63.81
47750;BME280;49810;48.160;10.812;2022-12-11T11:54:45;94353.50;;;2.03;58.50
47750;BME280;49810;48.160;10.812;2022-12-11T11:57:16;94351.88;;;3.28;54.55
47750;BME280;49810;48.160;10.812;2022-12-11T11:59:46;94341.94;;;3.19;54.66
47750;BME280;49810;48.160;10.812;2022-12-11T12:02:17;94344.59;;;3.01;54.15
47750;BME280;49810;48.160;10.812;2022-12-11T12:04:46;94349.41;;;2.68;56.30
47750;BME280;49810;48.160;10.812;2022-12-11T12:07:21;94347.63;;;1.03;58.46
47750;BME280;49810;48.160;10.812;2022-12-11T12:09:52;94352.28;;;0.51;61.63
47750;BME280;49810;48.160;10.812;2022-12-11T12:12:25;94355.53;;;0.33;61.27
47750;BME280;49810;48.160;10.812;2022-12-11T12:15:02;94345.00;;;0.66;61.46
47750;BME280;49810;48.160;10.812;2022-12-11T12:17:36;94335.75;;;1.94;58.72
47750;BME280;49810;48.160;10.812;2022-12-11T12:20:11;94329.19;;;4.04;53.19
47750;BME280;49810;48.160;10.812;2022-12-11T12:22:46;94336.66;;;3.37;54.29
47750;BME280;49810;48.160;10.812;2022-12-11T12:25:21;94335.78;;;3.43;53.36
47750;BME280;49810;48.160;10.812;2022-12-11T12:27:52;94332.22;;;4.47;51.73
47750;BME280;49810;48.160;10.812;2022-12-11T12:30:24;94340.97;;;3.31;52.93
47750;BME280;49810;48.160;10.812;2022-12-11T12:33:00;94334.59;;;3.27;54.32
47750;BME280;49810;48.160;10.812;2022-12-11T12:35:34;94335.44;;;2.62;55.94
47750;BME280;49810;48.160;10.812;2022-12-11T12:38:05;94327.59;;;2.26;56.35
47750;BME280;49810;48.160;10.812;2022-12-11T12:40:34;94341.47;;;1.29;59.30
47750;BME280;49810;48.160;10.812;2022-12-11T12:45:50;94354.97;;;0.75;60.44
47750;BME280;49810;48.160;10.812;2022-12-11T12:48:21;94346.00;;;0.71;61.27
47750;BME280;49810;48.160;10.812;2022-12-11T12:50:51;94344.63;;;0.62;60.99
47750;BME280;49810;48.160;10.812;2022-12-11T12:53:19;94347.28;;;0.49;61.38
47750;BME280;49810;48.160;10.812;2022-12-11T12:55:50;94336.06;;;0.55;61.92
47750;BME280;49810;48.160;10.812;2022-12-11T12:58:23;94324.91;;;1.72;58.54
47750;BME280;49810;48.160;10.812;2022-12-11T13:00:51;94323.00;;;2.94;55.47
47750;BME280;49810;48.160;10.812;2022-12-11T13:03:20;94319.25;;;3.72;52.78
47750;BME280;49810;48.160;10.812;2022-12-11T13:05:55;94321.09;;;4.40;51.22
47750;BME280;49810;48.160;10.812;2022-12-11T13:08:25;94321.59;;;5.05;48.26